Sutton, NE

8:40 AM CDT on May 05, 2015 (GMT -0500)
Hastings Municipal | | Change Station
CLOSE
Current Station
Airport
Location: Hastings,
Elevation: 1959 ft
Nearby Weather Stations
Active Advisory: Dense Fog Advisory

Elev 1959 ft 40.60 °N, 98.43 °W | Updated 3 minutes ago

Fog
Fog
60 °F
Feels Like 60 °F
N
5
Wind Variable Wind from East

Today
High -- | Low -- °F
--% Chance of Precip.
Yesterday
High -- | Low -- °F
Precip. -- in
6:25 AM 8:31 PM
Full, 98% visible
Pressure 30.05 in
Visibility 5.0 miles
Clouds Scattered Clouds 400 ft
Mostly Cloudy 3000 ft
Overcast 3400 ft
Dew Point 58 °F
Humidity 93%
Rainfall 0.02 in
Snow Depth Not available.
UV 1 out of 12
Pollen 6.10 out of 12
Air Quality Not available.
Flu Activity Local Activity
SPECI KHSI 051337Z AUTO 09004KT 5SM BR SCT004 BKN030 OVC034 16/14 A3005 RMK AO2 T01560144

More Conditions Fewer Conditions

Pressure 30.05 in
Visibility 5.0 miles
Clouds Scattered Clouds 400 ft
Mostly Cloudy 3000 ft
Overcast 3400 ft
Dew Point 58 °F
Humidity 93%
Rainfall 0.02 in
Snow Depth Not available.
UV 1 out of 12
Pollen 6.10 out of 12
Air Quality Not available.
Flu Activity Local Activity
SPECI KHSI 051337Z AUTO 09004KT 5SM BR SCT004 BKN030 OVC034 16/14 A3005 RMK AO2 T01560144

More Conditions Fewer Conditions

Nepal has a long way to go to dig out and rebuild from a devastating earthquake. We have teamed up with several charities and organizations to make contributing to the relief effort as easy as possible.
How you can help: Portlight Strategies | Red Cross

10-Day Weather Forecast

Almanac

Astronomy

May. 05, 2015 Rise Set
Actual Time
Civil Twilight
Nautical Twilight
Astronomical Twilight
Moon
Length of Visible Light
Length of Day
Tomorrow will be .
, % of the Moon is Illuminated

Today's Extremes

State Highs State Lows

Community

WunderPhotos

Upload Photos

1,818,889 photos uploaded!

WunderBlogs® & News

Nearby

Air Quality

  Air Quality AQ Index Pollutant
Not available.

Snow Depth

Station Depth Elevation

Earthquake Activity

City Distance Mag. Time & Date
Minimum magnitude displayed is 2.5.

Coastal Water Temperatures

Place Temperature

Stations

Nearby Weather Stations

Station Location Temp. Windchill Dew Point Humidity Wind Precip. Elev Updated Type
                   
Dense Fog Advisory
Statement as of 12:26 AM CDT on May 05, 2015

... Dense fog advisory in effect until 10 am CDT this morning...

The National Weather Service in Hastings has issued a dense fog
advisory... which is in effect until 10 am CDT this morning.

* Visibility... around one quarter mile.

* Impacts... the dense fog will restrict visibilities and driving
may be difficult.

Precautionary/preparedness actions...

A dense fog advisory means visibilities will frequently be
reduced to less than one quarter mile. If driving... slow down...
use your headlights... and leave plenty of distance ahead of you.